createdAt,value
2023-05-05T00:01:40.230Z,4.47
2023-05-05T00:04:11.908Z,4.13
2023-05-05T00:06:42.489Z,3.87
2023-05-05T00:09:11.132Z,4.37
2023-05-05T00:11:39.758Z,3.83
2023-05-05T00:14:08.618Z,4.27
2023-05-05T00:16:37.260Z,4.60
2023-05-05T00:19:06.931Z,4.07
2023-05-05T00:21:35.281Z,4.43
2023-05-05T00:24:05.884Z,4.30
2023-05-05T00:26:34.508Z,4.40
2023-05-05T00:29:03.071Z,4.37
2023-05-05T00:31:31.744Z,3.93
2023-05-05T00:34:00.425Z,4.00
2023-05-05T00:36:29.269Z,4.10
2023-05-05T00:38:57.795Z,4.43
2023-05-05T00:41:28.207Z,4.23
2023-05-05T00:44:03.608Z,5.10
2023-05-05T00:46:35.478Z,4.03
2023-05-05T00:49:04.081Z,4.37
2023-05-05T00:51:33.295Z,4.40
2023-05-05T00:54:04.552Z,4.73
2023-05-05T00:56:35.347Z,4.40
2023-05-05T00:59:05.071Z,3.87
2023-05-05T01:01:41.334Z,4.33
2023-05-05T01:04:12.624Z,4.50
2023-05-05T01:06:44.339Z,4.37
2023-05-05T01:09:19.439Z,4.33
2023-05-05T01:11:52.306Z,4.90
2023-05-05T01:14:24.517Z,4.97
2023-05-05T01:17:03.831Z,4.57
2023-05-05T01:19:42.827Z,4.23
2023-05-05T01:22:13.787Z,4.30
2023-05-05T01:24:50.320Z,5.23
2023-05-05T01:27:38.411Z,4.80
2023-05-05T01:30:22.759Z,4.77
2023-05-05T01:32:57.287Z,4.30
2023-05-05T01:35:29.297Z,4.60
2023-05-05T01:38:01.958Z,4.90
2023-05-05T01:40:34.074Z,4.57
2023-05-05T01:43:04.450Z,4.53
2023-05-05T01:45:37.795Z,4.90
2023-05-05T01:48:08.762Z,5.07
2023-05-05T01:50:37.684Z,4.67
2023-05-05T01:53:09.776Z,4.60
2023-05-05T01:55:41.948Z,4.57
2023-05-05T01:58:11.935Z,4.77
2023-05-05T02:00:40.873Z,4.60
2023-05-05T02:03:15.859Z,4.83
2023-05-05T02:05:46.736Z,4.97
2023-05-05T02:08:15.477Z,5.10
2023-05-05T02:10:46.797Z,4.47
2023-05-05T02:13:19.074Z,5.00
2023-05-05T02:15:51.090Z,4.70
2023-05-05T02:18:21.971Z,4.70
2023-05-05T02:20:50.800Z,4.73
2023-05-05T02:23:19.389Z,5.17
2023-05-05T02:25:51.146Z,4.90
2023-05-05T02:28:25.459Z,4.80
2023-05-05T02:30:57.889Z,5.47
2023-05-05T02:33:29.256Z,5.20
2023-05-05T02:35:59.498Z,4.57
2023-05-05T02:38:30.878Z,4.70
2023-05-05T02:41:00.610Z,4.67
2023-05-05T02:43:31.585Z,5.20
2023-05-05T02:46:00.091Z,4.80
2023-05-05T02:48:31.100Z,5.10
2023-05-05T02:50:59.629Z,4.73
2023-05-05T02:53:28.857Z,4.77
2023-05-05T02:55:59.097Z,4.67
2023-05-05T02:58:33.108Z,4.63
2023-05-05T03:01:06.040Z,5.80
2023-05-05T03:03:41.140Z,4.93
2023-05-05T03:06:14.326Z,4.60
2023-05-05T03:08:44.804Z,4.60
2023-05-05T03:11:17.031Z,4.70
2023-05-05T03:13:47.420Z,5.40
2023-05-05T03:16:18.045Z,5.10
2023-05-05T03:18:52.599Z,5.17
2023-05-05T03:21:23.289Z,4.03
2023-05-05T03:23:54.025Z,4.93
2023-05-05T03:26:23.245Z,5.30
2023-05-05T03:28:52.256Z,5.03
2023-05-05T03:31:21.671Z,5.27
2023-05-05T03:33:51.906Z,5.03
2023-05-05T03:36:20.720Z,4.87
2023-05-05T03:38:49.559Z,4.33
2023-05-05T03:41:18.690Z,5.00
2023-05-05T03:43:48.978Z,4.57
2023-05-05T03:46:18.534Z,4.63
2023-05-05T03:48:47.109Z,5.10
2023-05-05T03:51:18.315Z,4.47
2023-05-05T03:53:46.881Z,4.93
2023-05-05T03:56:16.780Z,4.87
2023-05-05T03:58:48.520Z,4.77
2023-05-05T04:01:17.600Z,4.80
2023-05-05T04:03:46.061Z,4.87
2023-05-05T04:06:15.700Z,4.90
2023-05-05T04:08:48.943Z,4.90
2023-05-05T04:11:21.263Z,4.47
2023-05-05T04:13:55.974Z,4.63
2023-05-05T04:16:24.598Z,4.47
2023-05-05T04:18:56.344Z,4.63
2023-05-05T04:21:28.069Z,4.77
2023-05-05T04:23:58.802Z,5.07
2023-05-05T04:26:33.625Z,5.13
2023-05-05T04:29:02.182Z,5.70
2023-05-05T04:31:36.753Z,5.27
2023-05-05T04:34:05.199Z,5.20
2023-05-05T04:36:33.814Z,5.23
2023-05-05T04:39:03.972Z,4.70
2023-05-05T04:41:32.476Z,4.43
2023-05-05T04:44:02.367Z,4.10
2023-05-05T04:46:31.902Z,4.83
2023-05-05T04:49:05.356Z,5.20
2023-05-05T04:51:44.125Z,5.47
2023-05-05T04:54:14.454Z,5.07
2023-05-05T04:56:43.272Z,5.97
2023-05-05T04:59:12.178Z,5.87
2023-05-05T05:01:41.419Z,4.60
2023-05-05T05:04:26.400Z,5.40
2023-05-05T05:10:07.121Z,4.30
2023-05-05T05:12:40.965Z,4.30
2023-05-05T05:15:13.234Z,4.17
2023-05-05T05:17:43.395Z,4.87
2023-05-05T05:20:13.701Z,4.63
2023-05-05T05:22:45.057Z,4.83
2023-05-05T05:25:29.477Z,4.80
2023-05-05T05:28:10.024Z,4.30
2023-05-05T05:30:41.431Z,4.43
2023-05-05T05:33:13.022Z,4.63
2023-05-05T05:38:30.419Z,4.20
2023-05-05T05:41:03.010Z,4.53
2023-05-05T05:43:32.381Z,4.20
2023-05-05T05:46:01.571Z,4.67
2023-05-05T05:49:00.676Z,4.77
2023-05-05T05:51:29.373Z,4.70
2023-05-05T05:54:00.318Z,4.90
2023-05-05T05:56:59.302Z,4.70
2023-05-05T06:02:36.818Z,4.30
2023-05-05T06:11:18.995Z,4.57
2023-05-05T06:14:08.425Z,3.77
2023-05-05T06:16:44.586Z,4.03
2023-05-05T06:24:43.030Z,4.07
2023-05-05T06:27:24.168Z,3.43
2023-05-05T06:46:14.997Z,3.33
2023-05-05T06:48:47.964Z,4.23
2023-05-05T07:02:39.550Z,3.30
2023-05-05T07:05:12.696Z,3.90
2023-05-05T07:07:44.308Z,4.83
2023-05-05T07:10:15.164Z,3.77
2023-05-05T07:15:33.898Z,3.90
2023-05-05T07:18:04.874Z,3.83
2023-05-05T07:20:34.635Z,3.73
2023-05-05T07:23:04.753Z,3.50
2023-05-05T07:25:34.559Z,3.13
2023-05-05T07:28:04.545Z,3.60
2023-05-05T07:30:51.207Z,3.93
2023-05-05T07:33:24.769Z,3.87
2023-05-05T07:35:53.764Z,3.97
2023-05-05T07:38:25.649Z,3.17
2023-05-05T07:40:55.579Z,3.70
2023-05-05T07:43:25.605Z,3.77
2023-05-05T07:48:41.838Z,3.67
2023-05-05T07:51:17.071Z,3.60
2023-05-05T07:53:53.278Z,4.03
2023-05-05T07:56:22.860Z,3.47
2023-05-05T07:59:05.111Z,3.97
2023-05-05T08:01:34.898Z,3.40
2023-05-05T08:04:07.097Z,3.70
2023-05-05T08:06:36.319Z,3.20
2023-05-05T08:09:06.306Z,3.27
2023-05-05T08:11:51.146Z,3.70
2023-05-05T08:14:21.846Z,3.27
2023-05-05T08:16:53.026Z,3.20
2023-05-05T08:19:29.192Z,3.23
2023-05-05T08:24:55.212Z,3.40
2023-05-05T08:27:27.827Z,3.53
2023-05-05T08:29:58.618Z,3.40
2023-05-05T08:32:30.001Z,3.50
2023-05-05T08:44:23.424Z,2.83
2023-05-05T08:46:54.221Z,3.03
2023-05-05T08:49:38.602Z,3.20
2023-05-05T08:52:08.005Z,3.27
2023-05-05T08:54:37.138Z,3.37
2023-05-05T08:57:11.317Z,3.00
2023-05-05T08:59:43.694Z,3.10
2023-05-05T09:02:13.912Z,3.13
2023-05-05T09:04:45.030Z,3.23
2023-05-05T09:22:35.647Z,3.43
2023-05-05T09:25:06.009Z,3.43
2023-05-05T09:36:54.397Z,3.50
2023-05-05T09:43:07.850Z,3.50
2023-05-05T09:52:28.342Z,3.63
2023-05-05T10:04:19.642Z,3.03
2023-05-05T10:13:19.646Z,3.80
2023-05-05T10:51:31.054Z,3.20
2023-05-05T10:57:01.224Z,3.73
2023-05-05T10:59:47.250Z,3.20
2023-05-05T11:02:41.350Z,3.40
2023-05-05T11:20:16.467Z,3.40
2023-05-05T11:26:16.762Z,3.40
2023-05-05T11:49:11.937Z,3.50
2023-05-05T11:51:41.116Z,3.90
2023-05-05T11:54:12.209Z,3.47
2023-05-05T11:56:51.637Z,3.40
2023-05-05T12:02:21.349Z,4.07
2023-05-05T12:14:18.244Z,3.40
2023-05-05T12:16:58.040Z,3.83
2023-05-05T12:19:31.643Z,4.03
2023-05-05T12:22:00.273Z,3.77
2023-05-05T12:24:30.402Z,3.97
2023-05-05T12:27:09.465Z,3.70
2023-05-05T12:29:40.877Z,4.70
2023-05-05T12:32:21.204Z,4.10
2023-05-05T12:40:41.977Z,4.13
2023-05-05T12:43:12.464Z,3.83
2023-05-05T12:45:43.614Z,4.00
2023-05-05T12:48:27.910Z,3.70
2023-05-05T12:50:59.568Z,4.43
2023-05-05T12:53:32.787Z,3.77
2023-05-05T12:56:08.712Z,3.80
2023-05-05T13:01:51.945Z,3.43
2023-05-05T13:04:23.833Z,3.60
2023-05-05T13:06:54.963Z,3.67
2023-05-05T13:09:27.454Z,3.67
2023-05-05T13:12:00.776Z,3.37
2023-05-05T13:14:40.915Z,3.43
2023-05-05T13:17:19.036Z,3.50
2023-05-05T13:19:59.103Z,3.40
2023-05-05T13:22:28.573Z,4.73
2023-05-05T13:24:57.478Z,4.23
2023-05-05T13:27:26.672Z,3.50
2023-05-05T13:29:57.702Z,3.47
2023-05-05T13:32:30.625Z,4.00
2023-05-05T13:34:59.496Z,3.40
2023-05-05T13:37:28.581Z,4.00
2023-05-05T13:39:59.523Z,3.23
2023-05-05T13:42:28.459Z,3.40
2023-05-05T13:44:59.281Z,4.50
2023-05-05T13:47:35.872Z,3.90
2023-05-05T13:50:18.971Z,4.13
2023-05-05T13:52:52.344Z,4.60
2023-05-05T13:58:29.345Z,3.93
2023-05-05T14:09:54.465Z,4.87
2023-05-05T14:12:41.360Z,4.83
2023-05-05T14:15:32.072Z,4.73
2023-05-05T14:21:13.827Z,3.83
2023-05-05T14:23:42.116Z,4.47
2023-05-05T14:26:11.234Z,3.77
2023-05-05T14:28:39.421Z,4.37
2023-05-05T14:31:07.931Z,5.53
2023-05-05T14:33:36.239Z,5.17
2023-05-05T14:36:06.426Z,4.50
2023-05-05T14:38:35.533Z,4.77
2023-05-05T14:41:04.321Z,4.30
2023-05-05T14:43:34.506Z,4.60
2023-05-05T14:46:06.928Z,4.50
2023-05-05T14:48:35.618Z,4.73
2023-05-05T14:51:04.798Z,4.93
2023-05-05T14:53:36.922Z,4.80
2023-05-05T14:56:05.217Z,5.43
2023-05-05T14:58:35.949Z,5.17
2023-05-05T15:01:04.837Z,5.37
2023-05-05T15:03:33.578Z,5.10
2023-05-05T15:06:02.665Z,5.00
2023-05-05T15:08:31.324Z,5.07
2023-05-05T15:11:01.478Z,4.83
2023-05-05T15:13:30.137Z,4.03
2023-05-05T15:15:58.630Z,4.30
2023-05-05T15:18:27.463Z,5.63
2023-05-05T15:20:56.071Z,5.07
2023-05-05T15:23:28.999Z,4.80
2023-05-05T15:26:00.049Z,4.43
2023-05-05T15:28:30.301Z,4.70
2023-05-05T15:31:01.959Z,4.80
2023-05-05T15:33:34.152Z,4.80
2023-05-05T15:36:02.774Z,4.07
2023-05-05T15:38:36.725Z,4.00
2023-05-05T15:41:05.126Z,4.47
2023-05-05T15:43:35.700Z,3.83
2023-05-05T15:46:04.606Z,4.27
2023-05-05T15:48:35.046Z,4.83
2023-05-05T15:51:03.521Z,4.27
2023-05-05T15:53:32.555Z,4.33
2023-05-05T15:56:01.262Z,4.83
2023-05-05T15:58:29.697Z,4.93
2023-05-05T16:01:01.827Z,4.77
2023-05-05T16:03:31.089Z,4.97
2023-05-05T16:05:59.403Z,4.80
2023-05-05T16:08:29.240Z,4.77
2023-05-05T16:10:58.086Z,5.17
2023-05-05T16:13:28.724Z,4.63
2023-05-05T16:15:57.682Z,4.80
2023-05-05T16:18:28.892Z,5.00
2023-05-05T16:20:57.556Z,4.90
2023-05-05T16:23:26.408Z,4.67
2023-05-05T16:25:55.300Z,5.23
2023-05-05T16:28:24.269Z,5.33
2023-05-05T16:30:52.486Z,5.53
2023-05-05T16:33:20.895Z,5.20
2023-05-05T16:35:50.729Z,5.93
2023-05-05T16:38:18.944Z,4.80
2023-05-05T16:40:47.277Z,6.63
2023-05-05T16:43:15.626Z,5.43
2023-05-05T16:45:43.982Z,5.30
2023-05-05T16:48:13.768Z,5.10
2023-05-05T16:50:42.245Z,5.50
2023-05-05T16:53:12.153Z,5.53
2023-05-05T16:55:40.414Z,5.53
2023-05-05T16:58:08.825Z,6.43
2023-05-05T17:00:37.074Z,5.73
2023-05-05T17:03:05.441Z,5.90
2023-05-05T17:05:33.795Z,5.37
2023-05-05T17:08:03.132Z,5.17
2023-05-05T17:10:32.812Z,4.67
2023-05-05T17:13:01.288Z,5.07
2023-05-05T17:15:29.808Z,5.43
2023-05-05T17:17:58.142Z,4.77
2023-05-05T17:20:26.860Z,5.20
2023-05-05T17:22:55.626Z,4.67
2023-05-05T17:25:25.819Z,4.93
2023-05-05T17:27:56.154Z,4.60
2023-05-05T17:30:24.838Z,4.60
2023-05-05T17:32:53.229Z,4.13
2023-05-05T17:35:21.810Z,4.73
2023-05-05T17:37:50.162Z,4.23
2023-05-05T17:40:18.513Z,4.07
2023-05-05T17:42:47.353Z,4.87
2023-05-05T17:45:17.155Z,4.67
2023-05-05T17:47:45.389Z,4.47
2023-05-05T17:50:14.543Z,5.10
2023-05-05T17:52:45.176Z,4.43
2023-05-05T17:55:13.573Z,4.60
2023-05-05T17:57:43.949Z,5.13
2023-05-05T18:00:12.615Z,4.60
2023-05-05T18:02:42.885Z,4.60
2023-05-05T18:05:12.023Z,4.37
2023-05-05T18:07:43.361Z,3.97
2023-05-05T18:10:12.206Z,4.47
2023-05-05T18:12:40.655Z,4.57
2023-05-05T18:15:10.196Z,4.03
2023-05-05T18:17:38.810Z,4.37
2023-05-05T18:20:09.523Z,4.40
2023-05-05T18:22:38.068Z,5.00
2023-05-05T18:25:08.041Z,4.43
2023-05-05T18:27:37.422Z,4.67
2023-05-05T18:30:06.484Z,4.53
2023-05-05T18:32:35.167Z,4.93
2023-05-05T18:35:03.500Z,4.83
2023-05-05T18:37:33.684Z,5.60
2023-05-05T18:40:02.128Z,5.90
2023-05-05T18:42:30.922Z,6.57
2023-05-05T18:45:01.569Z,6.10
2023-05-05T18:47:30.212Z,5.40
2023-05-05T18:49:59.922Z,5.87
2023-05-05T18:52:35.432Z,6.17
2023-05-05T18:55:07.231Z,7.10
2023-05-05T18:57:38.329Z,6.40
2023-05-05T19:00:10.368Z,5.70
2023-05-05T19:02:40.085Z,3.47
2023-05-05T19:05:10.242Z,1.90
2023-05-05T19:07:39.388Z,1.63
2023-05-05T19:10:09.826Z,2.90
2023-05-05T19:12:38.103Z,2.30
2023-05-05T19:15:07.059Z,3.27
2023-05-05T19:17:36.438Z,2.23
2023-05-05T19:20:06.398Z,2.40
2023-05-05T19:22:34.846Z,2.57
2023-05-05T19:25:04.882Z,2.93
2023-05-05T19:27:37.920Z,2.30
2023-05-05T19:30:06.730Z,2.40
2023-05-05T19:32:41.885Z,2.10
2023-05-05T19:35:11.868Z,2.00
2023-05-05T19:37:40.369Z,2.30
2023-05-05T19:40:12.643Z,2.17
2023-05-05T19:42:42.640Z,2.03
2023-05-05T19:45:11.106Z,2.70
2023-05-05T19:47:39.081Z,2.57
2023-05-05T19:50:08.301Z,2.30
2023-05-05T19:52:36.684Z,2.63
2023-05-05T19:55:06.676Z,2.50
2023-05-05T19:57:34.844Z,2.53
2023-05-05T20:00:04.606Z,3.20
2023-05-05T20:02:35.423Z,2.27
2023-05-05T20:05:06.723Z,2.73
2023-05-05T20:07:36.120Z,2.90
2023-05-05T20:10:04.368Z,2.73
2023-05-05T20:12:32.535Z,2.67
2023-05-05T20:15:01.811Z,2.90
2023-05-05T20:17:31.734Z,2.70
2023-05-05T20:20:01.614Z,5.93
2023-05-05T20:22:31.259Z,5.33
2023-05-05T20:24:59.934Z,3.03
2023-05-05T20:27:28.839Z,2.60
2023-05-05T20:29:58.540Z,2.73
2023-05-05T20:32:27.294Z,2.03
2023-05-05T20:34:57.258Z,2.53
2023-05-05T20:37:27.081Z,2.50
2023-05-05T20:39:56.710Z,2.60
2023-05-05T20:42:28.035Z,3.00
2023-05-05T20:44:57.125Z,2.57
2023-05-05T20:47:26.823Z,2.50
2023-05-05T20:49:56.992Z,2.63
2023-05-05T20:52:27.882Z,2.93
2023-05-05T20:54:57.774Z,2.30
2023-05-05T20:57:28.549Z,2.37
2023-05-05T20:59:57.508Z,2.40
2023-05-05T21:02:26.393Z,2.60
2023-05-05T21:05:02.248Z,2.60
2023-05-05T21:07:31.374Z,2.20
2023-05-05T21:09:59.847Z,2.50
2023-05-05T21:12:28.310Z,2.33
2023-05-05T21:14:58.921Z,2.10
2023-05-05T21:17:27.698Z,2.10
2023-05-05T21:19:57.987Z,1.90
2023-05-05T21:22:26.538Z,2.20
2023-05-05T21:24:56.587Z,2.50
2023-05-05T21:27:25.493Z,2.27
2023-05-05T21:29:54.474Z,2.80
2023-05-05T21:32:23.299Z,2.23
2023-05-05T21:34:52.310Z,2.43
2023-05-05T21:37:22.445Z,2.50
2023-05-05T21:39:50.944Z,2.30
2023-05-05T21:42:19.557Z,2.20
2023-05-05T21:44:48.059Z,2.23
2023-05-05T21:47:16.543Z,2.90
2023-05-05T21:49:44.989Z,2.27
2023-05-05T21:52:13.466Z,2.10
2023-05-05T21:54:43.326Z,2.07
2023-05-05T21:57:13.257Z,2.70
2023-05-05T21:59:41.730Z,2.13
2023-05-05T22:02:10.475Z,2.50
2023-05-05T22:04:38.593Z,2.53
2023-05-05T22:07:08.835Z,2.23
2023-05-05T22:09:37.169Z,2.37
2023-05-05T22:12:07.431Z,2.03
2023-05-05T22:14:35.824Z,2.40
2023-05-05T22:17:04.238Z,2.00
2023-05-05T22:19:32.791Z,2.60
2023-05-05T22:22:01.329Z,2.20
2023-05-05T22:24:29.844Z,2.50
2023-05-05T22:26:58.365Z,2.20
2023-05-05T22:29:28.220Z,2.40
2023-05-05T22:31:56.854Z,2.50
2023-05-05T22:34:27.067Z,2.37
2023-05-05T22:36:55.549Z,2.50
2023-05-05T22:39:24.584Z,2.40
2023-05-05T22:41:52.912Z,2.70
2023-05-05T22:44:21.489Z,2.50
2023-05-05T22:46:51.272Z,2.37
2023-05-05T22:49:19.689Z,2.40
2023-05-05T22:51:48.092Z,2.47
2023-05-05T22:54:17.445Z,2.60
2023-05-05T22:56:46.509Z,3.20
2023-05-05T22:59:14.969Z,2.80
2023-05-05T23:01:43.597Z,2.83
2023-05-05T23:04:13.432Z,2.70
2023-05-05T23:06:41.928Z,2.70
2023-05-05T23:09:10.452Z,3.10
2023-05-05T23:11:38.842Z,2.80
2023-05-05T23:14:07.262Z,2.90
2023-05-05T23:16:35.699Z,3.10
2023-05-05T23:19:04.186Z,3.33
2023-05-05T23:21:38.861Z,2.80
2023-05-05T23:24:14.226Z,3.00
2023-05-05T23:26:42.645Z,3.17
2023-05-05T23:29:11.227Z,2.73
2023-05-05T23:31:40.225Z,3.10
2023-05-05T23:34:08.685Z,2.80
2023-05-05T23:36:39.624Z,2.70
2023-05-05T23:39:08.698Z,2.80
2023-05-05T23:41:38.341Z,3.13
2023-05-05T23:44:08.390Z,2.90
2023-05-05T23:46:37.810Z,2.80
2023-05-05T23:49:07.517Z,3.23
2023-05-05T23:51:37.681Z,3.80
2023-05-05T23:54:08.691Z,2.90
2023-05-05T23:56:40.814Z,3.17
2023-05-05T23:59:10.071Z,3.00
